createdAt,value
2023-02-12T00:06:26.324Z,73.10
2023-02-12T00:14:31.755Z,72.90
2023-02-12T00:22:39.800Z,72.80
2023-02-12T00:30:45.283Z,72.90
2023-02-12T00:38:55.384Z,72.80
2023-02-12T00:47:03.910Z,72.60
2023-02-12T00:55:12.328Z,72.00
2023-02-12T01:03:18.223Z,71.90
2023-02-12T01:11:26.260Z,72.00
2023-02-12T01:19:32.029Z,72.10
2023-02-12T01:27:40.022Z,72.90
2023-02-12T01:35:45.448Z,73.60
2023-02-12T01:44:12.260Z,74.70
2023-02-12T01:52:21.447Z,75.40
2023-02-12T02:00:29.441Z,76.00
2023-02-12T02:08:37.736Z,76.80
2023-02-12T02:16:56.073Z,77.50
2023-02-12T02:25:24.893Z,78.20
2023-02-12T02:33:40.449Z,79.30
2023-02-12T02:41:50.521Z,80.70
2023-02-12T02:50:02.536Z,80.10
2023-02-12T02:58:12.321Z,80.50
2023-02-12T03:06:25.496Z,80.10
2023-02-12T03:14:35.289Z,80.70
2023-02-12T03:22:46.452Z,80.80
2023-02-12T03:30:57.060Z,81.00
2023-02-12T03:39:11.530Z,81.10
2023-02-12T03:47:24.507Z,81.20
2023-02-12T03:55:35.810Z,81.70
2023-02-12T04:03:41.628Z,83.80
2023-02-12T04:12:05.475Z,86.60
2023-02-12T04:20:18.628Z,85.50
2023-02-12T04:28:37.617Z,85.20
2023-02-12T04:36:54.758Z,84.80
2023-02-12T04:45:02.826Z,84.90
2023-02-12T04:53:08.673Z,85.90
2023-02-12T05:01:16.697Z,85.90
2023-02-12T05:09:23.938Z,84.60
2023-02-12T05:17:31.964Z,85.00
2023-02-12T05:25:37.285Z,85.30
2023-02-12T05:33:45.265Z,83.70
2023-02-12T05:41:50.695Z,83.00
2023-02-12T05:49:58.689Z,83.10
2023-02-12T05:58:03.993Z,83.10
2023-02-12T06:06:12.230Z,82.80
2023-02-12T06:14:19.293Z,82.70
2023-02-12T06:22:27.244Z,82.20
2023-02-12T06:30:32.683Z,82.00
2023-02-12T06:38:40.920Z,81.90
2023-02-12T06:46:46.455Z,81.70
2023-02-12T06:54:54.583Z,82.20
2023-02-12T07:03:00.112Z,81.80
2023-02-12T07:11:08.708Z,81.10
2023-02-12T07:19:17.218Z,81.00
2023-02-12T07:27:25.256Z,80.90
2023-02-12T07:35:30.674Z,80.50
2023-02-12T07:43:38.824Z,80.50
2023-02-12T07:51:44.866Z,80.40
2023-02-12T07:59:52.849Z,79.90
2023-02-12T08:07:58.169Z,80.10
2023-02-12T08:16:08.555Z,80.90
2023-02-12T08:24:14.690Z,80.60
2023-02-12T08:32:22.620Z,80.10
2023-02-12T08:40:27.935Z,79.70
2023-02-12T08:48:36.202Z,79.60
2023-02-12T08:56:41.597Z,79.50
2023-02-12T09:04:49.572Z,79.00
2023-02-12T09:12:55.041Z,80.30
2023-02-12T09:21:07.916Z,79.80
2023-02-12T09:29:13.331Z,80.90
2023-02-12T09:37:21.246Z,81.40
2023-02-12T09:45:33.161Z,80.50
2023-02-12T09:53:46.438Z,80.80
2023-02-12T10:01:51.828Z,79.80
2023-02-12T10:10:21.859Z,79.40
2023-02-12T10:18:48.472Z,79.70
2023-02-12T10:27:03.965Z,79.00
2023-02-12T10:35:17.110Z,79.00
2023-02-12T10:43:25.141Z,78.40
2023-02-12T10:51:51.706Z,77.90
2023-02-12T11:00:19.589Z,76.70
2023-02-12T11:08:34.497Z,76.60
2023-02-12T11:16:49.643Z,75.80
2023-02-12T11:25:03.410Z,74.90
2023-02-12T11:33:27.743Z,75.20
2023-02-12T11:41:37.619Z,74.30
2023-02-12T11:49:52.911Z,74.90
2023-02-12T11:58:05.842Z,76.20
2023-02-12T12:06:25.168Z,76.80
2023-02-12T12:14:34.948Z,76.50
2023-02-12T12:22:52.413Z,75.80
2023-02-12T12:31:10.233Z,75.60
2023-02-12T12:39:29.712Z,75.00
2023-02-12T12:47:43.692Z,74.20
2023-02-12T12:56:04.056Z,73.10
2023-02-12T13:04:35.867Z,72.90
2023-02-12T13:12:58.276Z,72.40
2023-02-12T13:21:08.682Z,71.80
2023-02-12T13:29:21.621Z,72.00
2023-02-12T13:37:36.631Z,71.20
2023-02-12T13:45:53.407Z,71.10
2023-02-12T13:54:14.790Z,71.40
2023-02-12T14:02:52.871Z,72.00
2023-02-12T14:11:12.403Z,73.50
2023-02-12T14:20:03.802Z,73.60
2023-02-12T14:28:26.441Z,74.30
2023-02-12T14:36:44.091Z,74.30
2023-02-12T14:44:59.328Z,74.30
2023-02-12T14:53:28.473Z,73.70
2023-02-12T15:01:38.558Z,74.10
2023-02-12T15:09:50.726Z,75.10
2023-02-12T15:18:03.498Z,74.70
2023-02-12T15:26:15.733Z,74.80
2023-02-12T15:34:26.979Z,75.00
2023-02-12T15:42:34.788Z,75.60
2023-02-12T15:50:53.763Z,75.80
2023-02-12T15:59:01.995Z,76.10
2023-02-12T16:07:11.400Z,76.40
2023-02-12T16:15:35.523Z,76.50
2023-02-12T16:23:47.237Z,77.30
2023-02-12T16:32:04.352Z,77.60
2023-02-12T16:40:43.036Z,77.80
2023-02-12T16:48:51.941Z,78.20
2023-02-12T16:57:03.839Z,78.40
2023-02-12T17:05:10.510Z,78.80
2023-02-12T17:13:21.020Z,78.80
2023-02-12T17:21:30.392Z,78.80
2023-02-12T17:29:38.575Z,79.20
2023-02-12T17:37:44.048Z,79.70
2023-02-12T17:45:53.408Z,79.80
2023-02-12T17:54:12.740Z,80.00
2023-02-12T18:02:21.319Z,79.60
2023-02-12T18:10:28.769Z,81.00
2023-02-12T18:18:38.603Z,80.80
2023-02-12T18:26:46.977Z,82.30
2023-02-12T18:34:55.372Z,81.40
2023-02-12T18:43:00.849Z,81.10
2023-02-12T18:51:11.709Z,81.50
2023-02-12T18:59:18.412Z,81.60
2023-02-12T19:07:27.561Z,81.60
2023-02-12T19:15:33.213Z,81.00
2023-02-12T19:23:42.066Z,81.00
2023-02-12T19:31:49.907Z,81.00
2023-02-12T19:39:58.035Z,80.90
2023-02-12T19:48:03.545Z,81.10
2023-02-12T19:56:12.078Z,80.10
2023-02-12T20:04:19.566Z,81.40
2023-02-12T20:12:27.680Z,81.60
2023-02-12T20:20:33.375Z,81.20
2023-02-12T20:28:44.676Z,81.40
2023-02-12T20:36:51.086Z,81.80
2023-02-12T20:44:59.162Z,81.60
2023-02-12T20:53:06.165Z,81.80
2023-02-12T21:01:17.353Z,81.50
2023-02-12T21:09:23.376Z,81.40
2023-02-12T21:17:31.437Z,82.00
2023-02-12T21:25:36.852Z,81.40
2023-02-12T21:33:46.622Z,81.90
2023-02-12T21:41:52.071Z,81.70
2023-02-12T21:50:00.121Z,81.50
2023-02-12T21:58:05.712Z,82.10
2023-02-12T22:06:15.012Z,82.50
2023-02-12T22:14:20.860Z,82.10
2023-02-12T22:22:30.496Z,81.80
2023-02-12T22:30:36.316Z,82.70
2023-02-12T22:38:44.802Z,81.40
2023-02-12T22:46:50.371Z,82.70
2023-02-12T22:54:58.357Z,83.50
2023-02-12T23:03:03.739Z,83.80
2023-02-12T23:11:12.919Z,84.60
2023-02-12T23:19:18.589Z,83.90
2023-02-12T23:27:26.521Z,84.00
2023-02-12T23:35:32.427Z,83.80
2023-02-12T23:43:40.353Z,83.90
2023-02-12T23:51:46.507Z,83.60
2023-02-12T23:59:54.769Z,83.90
